sensor_id;sensor_type;location;lat;lon;timestamp;P1;durP1;ratioP1;P2;durP2;ratioP2
14066;SDS011;7108;42.684;23.350;2023-04-24T00:01:13;229.00;;;86.00;;
14066;SDS011;7108;42.684;23.350;2023-04-24T00:03:40;305.10;;;182.43;;
14066;SDS011;7108;42.684;23.350;2023-04-24T00:06:06;247.87;;;84.43;;
14066;SDS011;7108;42.684;23.350;2023-04-24T00:08:33;230.87;;;77.93;;
14066;SDS011;7108;42.684;23.350;2023-04-24T00:10:59;245.67;;;82.93;;
14066;SDS011;7108;42.684;23.350;2023-04-24T00:13:24;250.67;;;86.23;;
14066;SDS011;7108;42.684;23.350;2023-04-24T00:15:50;248.10;;;83.50;;
14066;SDS011;7108;42.684;23.350;2023-04-24T00:18:16;222.60;;;79.70;;
14066;SDS011;7108;42.684;23.350;2023-04-24T00:20:41;238.10;;;82.07;;
14066;SDS011;7108;42.684;23.350;2023-04-24T00:23:08;248.43;;;93.67;;
14066;SDS011;7108;42.684;23.350;2023-04-24T00:25:34;236.53;;;83.43;;
14066;SDS011;7108;42.684;23.350;2023-04-24T00:28:00;260.33;;;106.80;;
14066;SDS011;7108;42.684;23.350;2023-04-24T00:30:25;255.73;;;85.40;;
14066;SDS011;7108;42.684;23.350;2023-04-24T00:32:50;263.93;;;108.70;;
14066;SDS011;7108;42.684;23.350;2023-04-24T00:35:16;225.87;;;82.47;;
14066;SDS011;7108;42.684;23.350;2023-04-24T00:37:41;233.67;;;85.73;;
14066;SDS011;7108;42.684;23.350;2023-04-24T00:40:07;227.60;;;80.97;;
14066;SDS011;7108;42.684;23.350;2023-04-24T00:42:32;239.20;;;82.53;;
14066;SDS011;7108;42.684;23.350;2023-04-24T00:44:58;304.07;;;142.27;;
14066;SDS011;7108;42.684;23.350;2023-04-24T00:47:25;343.10;;;236.00;;
14066;SDS011;7108;42.684;23.350;2023-04-24T00:49:52;274.70;;;97.43;;
14066;SDS011;7108;42.684;23.350;2023-04-24T00:52:17;234.23;;;79.07;;
14066;SDS011;7108;42.684;23.350;2023-04-24T00:54:46;233.53;;;94.57;;
14066;SDS011;7108;42.684;23.350;2023-04-24T00:57:12;256.00;;;121.87;;
14066;SDS011;7108;42.684;23.350;2023-04-24T00:59:39;231.73;;;95.93;;
14066;SDS011;7108;42.684;23.350;2023-04-24T01:02:07;250.53;;;83.97;;
14066;SDS011;7108;42.684;23.350;2023-04-24T01:04:33;241.83;;;85.73;;
14066;SDS011;7108;42.684;23.350;2023-04-24T01:06:59;242.03;;;83.27;;
14066;SDS011;7108;42.684;23.350;2023-04-24T01:09:25;260.60;;;85.27;;
14066;SDS011;7108;42.684;23.350;2023-04-24T01:11:51;253.67;;;84.00;;
14066;SDS011;7108;42.684;23.350;2023-04-24T01:14:17;222.83;;;79.60;;
14066;SDS011;7108;42.684;23.350;2023-04-24T01:16:43;229.30;;;81.37;;
14066;SDS011;7108;42.684;23.350;2023-04-24T01:19:08;221.57;;;79.20;;
14066;SDS011;7108;42.684;23.350;2023-04-24T01:21:37;226.73;;;81.30;;
14066;SDS011;7108;42.684;23.350;2023-04-24T01:24:03;232.70;;;80.70;;
14066;SDS011;7108;42.684;23.350;2023-04-24T01:26:30;239.83;;;83.13;;
14066;SDS011;7108;42.684;23.350;2023-04-24T01:28:56;255.33;;;86.53;;
14066;SDS011;7108;42.684;23.350;2023-04-24T01:31:22;243.97;;;82.83;;
14066;SDS011;7108;42.684;23.350;2023-04-24T01:33:49;239.27;;;80.43;;
14066;SDS011;7108;42.684;23.350;2023-04-24T01:36:15;216.63;;;78.77;;
14066;SDS011;7108;42.684;23.350;2023-04-24T01:38:41;215.57;;;78.37;;
14066;SDS011;7108;42.684;23.350;2023-04-24T01:41:07;224.47;;;78.33;;
14066;SDS011;7108;42.684;23.350;2023-04-24T01:43:32;218.53;;;80.23;;
14066;SDS011;7108;42.684;23.350;2023-04-24T01:45:58;244.07;;;82.27;;
14066;SDS011;7108;42.684;23.350;2023-04-24T01:48:23;232.00;;;81.30;;
14066;SDS011;7108;42.684;23.350;2023-04-24T01:50:49;234.30;;;82.73;;
14066;SDS011;7108;42.684;23.350;2023-04-24T01:53:14;215.70;;;77.17;;
14066;SDS011;7108;42.684;23.350;2023-04-24T01:55:40;217.90;;;80.77;;
14066;SDS011;7108;42.684;23.350;2023-04-24T01:58:06;244.90;;;83.67;;
14066;SDS011;7108;42.684;23.350;2023-04-24T02:00:31;245.83;;;83.73;;
14066;SDS011;7108;42.684;23.350;2023-04-24T02:02:57;238.97;;;84.53;;
14066;SDS011;7108;42.684;23.350;2023-04-24T02:05:22;247.23;;;81.97;;
14066;SDS011;7108;42.684;23.350;2023-04-24T02:07:48;248.93;;;87.47;;
14066;SDS011;7108;42.684;23.350;2023-04-24T02:10:13;216.00;;;78.13;;
14066;SDS011;7108;42.684;23.350;2023-04-24T02:12:39;220.97;;;80.53;;
14066;SDS011;7108;42.684;23.350;2023-04-24T02:15:04;237.97;;;84.47;;
14066;SDS011;7108;42.684;23.350;2023-04-24T02:17:30;255.07;;;87.07;;
14066;SDS011;7108;42.684;23.350;2023-04-24T02:19:56;257.40;;;86.63;;
14066;SDS011;7108;42.684;23.350;2023-04-24T02:22:21;240.63;;;88.13;;
14066;SDS011;7108;42.684;23.350;2023-04-24T02:24:47;237.90;;;83.43;;
14066;SDS011;7108;42.684;23.350;2023-04-24T02:27:12;233.17;;;88.33;;
14066;SDS011;7108;42.684;23.350;2023-04-24T02:29:38;221.53;;;81.90;;
14066;SDS011;7108;42.684;23.350;2023-04-24T02:32:03;223.07;;;80.87;;
14066;SDS011;7108;42.684;23.350;2023-04-24T02:34:28;228.73;;;80.33;;
14066;SDS011;7108;42.684;23.350;2023-04-24T02:36:54;247.47;;;83.60;;
14066;SDS011;7108;42.684;23.350;2023-04-24T02:39:20;237.97;;;83.70;;
14066;SDS011;7108;42.684;23.350;2023-04-24T02:41:45;238.93;;;84.83;;
14066;SDS011;7108;42.684;23.350;2023-04-24T02:44:11;227.70;;;81.53;;
14066;SDS011;7108;42.684;23.350;2023-04-24T02:46:36;218.17;;;80.73;;
14066;SDS011;7108;42.684;23.350;2023-04-24T02:49:02;245.03;;;86.80;;
14066;SDS011;7108;42.684;23.350;2023-04-24T02:51:27;236.47;;;80.33;;
14066;SDS011;7108;42.684;23.350;2023-04-24T02:53:53;249.90;;;85.57;;
14066;SDS011;7108;42.684;23.350;2023-04-24T02:56:18;230.77;;;77.27;;
14066;SDS011;7108;42.684;23.350;2023-04-24T02:58:44;217.67;;;78.93;;
14066;SDS011;7108;42.684;23.350;2023-04-24T03:01:10;215.00;;;78.93;;
14066;SDS011;7108;42.684;23.350;2023-04-24T03:03:36;237.87;;;83.40;;
14066;SDS011;7108;42.684;23.350;2023-04-24T03:06:02;245.50;;;81.63;;
14066;SDS011;7108;42.684;23.350;2023-04-24T03:08:30;235.57;;;83.70;;
14066;SDS011;7108;42.684;23.350;2023-04-24T03:10:56;250.97;;;81.00;;
14066;SDS011;7108;42.684;23.350;2023-04-24T03:13:21;239.70;;;79.83;;
14066;SDS011;7108;42.684;23.350;2023-04-24T03:15:47;242.83;;;83.30;;
14066;SDS011;7108;42.684;23.350;2023-04-24T03:18:12;219.10;;;78.87;;
14066;SDS011;7108;42.684;23.350;2023-04-24T03:20:38;226.97;;;80.30;;
14066;SDS011;7108;42.684;23.350;2023-04-24T03:23:03;227.93;;;85.00;;
14066;SDS011;7108;42.684;23.350;2023-04-24T03:25:29;238.10;;;83.20;;
14066;SDS011;7108;42.684;23.350;2023-04-24T03:27:54;236.37;;;82.27;;
14066;SDS011;7108;42.684;23.350;2023-04-24T03:30:20;251.97;;;84.80;;
14066;SDS011;7108;42.684;23.350;2023-04-24T03:32:46;222.23;;;79.63;;
14066;SDS011;7108;42.684;23.350;2023-04-24T03:35:11;224.43;;;79.50;;
14066;SDS011;7108;42.684;23.350;2023-04-24T03:37:36;231.30;;;80.57;;
14066;SDS011;7108;42.684;23.350;2023-04-24T03:40:02;237.20;;;83.57;;
14066;SDS011;7108;42.684;23.350;2023-04-24T03:42:28;246.00;;;80.80;;
14066;SDS011;7108;42.684;23.350;2023-04-24T03:44:53;222.40;;;80.93;;
14066;SDS011;7108;42.684;23.350;2023-04-24T03:47:19;239.83;;;81.30;;
14066;SDS011;7108;42.684;23.350;2023-04-24T03:49:44;230.33;;;86.97;;
14066;SDS011;7108;42.684;23.350;2023-04-24T03:52:09;218.93;;;81.27;;
14066;SDS011;7108;42.684;23.350;2023-04-24T03:54:35;252.27;;;85.73;;
14066;SDS011;7108;42.684;23.350;2023-04-24T03:57:00;250.80;;;84.63;;
14066;SDS011;7108;42.684;23.350;2023-04-24T03:59:26;262.57;;;86.57;;
14066;SDS011;7108;42.684;23.350;2023-04-24T04:01:51;238.40;;;79.97;;
14066;SDS011;7108;42.684;23.350;2023-04-24T04:04:17;228.73;;;80.93;;
14066;SDS011;7108;42.684;23.350;2023-04-24T04:06:42;225.80;;;80.73;;
14066;SDS011;7108;42.684;23.350;2023-04-24T04:09:09;226.63;;;82.03;;
14066;SDS011;7108;42.684;23.350;2023-04-24T04:11:35;231.47;;;82.13;;
14066;SDS011;7108;42.684;23.350;2023-04-24T04:14:01;246.80;;;83.17;;
14066;SDS011;7108;42.684;23.350;2023-04-24T04:16:26;249.47;;;85.77;;
14066;SDS011;7108;42.684;23.350;2023-04-24T04:18:52;242.83;;;82.23;;
14066;SDS011;7108;42.684;23.350;2023-04-24T04:21:17;240.10;;;82.97;;
14066;SDS011;7108;42.684;23.350;2023-04-24T04:23:42;224.90;;;80.23;;
14066;SDS011;7108;42.684;23.350;2023-04-24T04:26:08;238.00;;;80.80;;
14066;SDS011;7108;42.684;23.350;2023-04-24T04:28:34;242.13;;;83.77;;
14066;SDS011;7108;42.684;23.350;2023-04-24T04:30:59;245.70;;;84.73;;
14066;SDS011;7108;42.684;23.350;2023-04-24T04:33:26;242.30;;;80.43;;
14066;SDS011;7108;42.684;23.350;2023-04-24T04:35:51;249.37;;;82.60;;
14066;SDS011;7108;42.684;23.350;2023-04-24T04:38:20;214.10;;;78.13;;
14066;SDS011;7108;42.684;23.350;2023-04-24T04:40:46;217.53;;;77.67;;
14066;SDS011;7108;42.684;23.350;2023-04-24T04:43:11;252.17;;;88.13;;
14066;SDS011;7108;42.684;23.350;2023-04-24T04:45:41;211.63;;;75.17;;
14066;SDS011;7108;42.684;23.350;2023-04-24T04:48:08;226.07;;;78.57;;
14066;SDS011;7108;42.684;23.350;2023-04-24T04:50:34;231.27;;;81.87;;
14066;SDS011;7108;42.684;23.350;2023-04-24T04:53:00;242.93;;;82.03;;
14066;SDS011;7108;42.684;23.350;2023-04-24T04:55:25;236.93;;;78.23;;
14066;SDS011;7108;42.684;23.350;2023-04-24T04:57:51;239.33;;;81.03;;
14066;SDS011;7108;42.684;23.350;2023-04-24T05:00:17;226.90;;;80.77;;
14066;SDS011;7108;42.684;23.350;2023-04-24T05:02:42;216.20;;;75.70;;
14066;SDS011;7108;42.684;23.350;2023-04-24T05:05:08;231.80;;;79.40;;
14066;SDS011;7108;42.684;23.350;2023-04-24T05:07:34;229.77;;;80.20;;
14066;SDS011;7108;42.684;23.350;2023-04-24T05:10:00;243.17;;;81.80;;
14066;SDS011;7108;42.684;23.350;2023-04-24T05:12:25;235.97;;;81.43;;
14066;SDS011;7108;42.684;23.350;2023-04-24T05:14:51;229.33;;;80.50;;
14066;SDS011;7108;42.684;23.350;2023-04-24T05:17:16;236.60;;;81.37;;
14066;SDS011;7108;42.684;23.350;2023-04-24T05:19:42;234.50;;;81.43;;
14066;SDS011;7108;42.684;23.350;2023-04-24T05:22:07;245.47;;;88.57;;
14066;SDS011;7108;42.684;23.350;2023-04-24T05:24:34;262.90;;;112.27;;
14066;SDS011;7108;42.684;23.350;2023-04-24T05:27:01;234.60;;;80.83;;
14066;SDS011;7108;42.684;23.350;2023-04-24T05:29:27;257.17;;;85.93;;
14066;SDS011;7108;42.684;23.350;2023-04-24T05:31:55;252.57;;;84.93;;
14066;SDS011;7108;42.684;23.350;2023-04-24T05:34:21;253.03;;;86.13;;
14066;SDS011;7108;42.684;23.350;2023-04-24T05:36:47;287.10;;;178.43;;
14066;SDS011;7108;42.684;23.350;2023-04-24T05:39:13;235.40;;;84.47;;
14066;SDS011;7108;42.684;23.350;2023-04-24T05:41:39;226.57;;;83.87;;
14066;SDS011;7108;42.684;23.350;2023-04-24T05:44:04;234.33;;;81.97;;
14066;SDS011;7108;42.684;23.350;2023-04-24T05:46:30;234.37;;;82.80;;
14066;SDS011;7108;42.684;23.350;2023-04-24T05:48:58;264.03;;;100.27;;
14066;SDS011;7108;42.684;23.350;2023-04-24T05:51:23;238.37;;;82.30;;
14066;SDS011;7108;42.684;23.350;2023-04-24T05:53:49;242.00;;;83.83;;
14066;SDS011;7108;42.684;23.350;2023-04-24T05:56:14;221.30;;;79.53;;
14066;SDS011;7108;42.684;23.350;2023-04-24T05:58:40;230.57;;;80.90;;
14066;SDS011;7108;42.684;23.350;2023-04-24T06:01:06;253.23;;;87.43;;
14066;SDS011;7108;42.684;23.350;2023-04-24T06:03:31;258.33;;;85.67;;
14066;SDS011;7108;42.684;23.350;2023-04-24T06:05:57;272.03;;;87.37;;
14066;SDS011;7108;42.684;23.350;2023-04-24T06:08:23;262.67;;;88.73;;
14066;SDS011;7108;42.684;23.350;2023-04-24T06:10:48;243.90;;;90.53;;
14066;SDS011;7108;42.684;23.350;2023-04-24T06:13:14;242.80;;;92.50;;
14066;SDS011;7108;42.684;23.350;2023-04-24T06:15:40;245.07;;;91.43;;
14066;SDS011;7108;42.684;23.350;2023-04-24T06:18:06;245.33;;;93.47;;
14066;SDS011;7108;42.684;23.350;2023-04-24T06:20:32;275.90;;;99.83;;
14066;SDS011;7108;42.684;23.350;2023-04-24T06:22:57;266.53;;;101.27;;
14066;SDS011;7108;42.684;23.350;2023-04-24T06:25:24;279.37;;;109.10;;
14066;SDS011;7108;42.684;23.350;2023-04-24T06:27:51;290.60;;;107.93;;
14066;SDS011;7108;42.684;23.350;2023-04-24T06:30:17;244.97;;;98.10;;
14066;SDS011;7108;42.684;23.350;2023-04-24T06:32:42;240.97;;;99.83;;
14066;SDS011;7108;42.684;23.350;2023-04-24T06:35:08;263.93;;;102.80;;
14066;SDS011;7108;42.684;23.350;2023-04-24T06:37:34;254.27;;;104.27;;
14066;SDS011;7108;42.684;23.350;2023-04-24T06:40:00;266.80;;;102.27;;
14066;SDS011;7108;42.684;23.350;2023-04-24T06:42:26;265.93;;;100.27;;
14066;SDS011;7108;42.684;23.350;2023-04-24T06:44:51;258.83;;;101.03;;
14066;SDS011;7108;42.684;23.350;2023-04-24T06:47:17;253.83;;;106.47;;
14066;SDS011;7108;42.684;23.350;2023-04-24T06:49:43;252.43;;;96.97;;
14066;SDS011;7108;42.684;23.350;2023-04-24T06:52:09;250.97;;;99.37;;
14066;SDS011;7108;42.684;23.350;2023-04-24T06:54:34;263.57;;;104.87;;
14066;SDS011;7108;42.684;23.350;2023-04-24T06:57:00;258.37;;;99.40;;
14066;SDS011;7108;42.684;23.350;2023-04-24T06:59:28;255.23;;;98.17;;
14066;SDS011;7108;42.684;23.350;2023-04-24T07:01:54;284.73;;;122.50;;
14066;SDS011;7108;42.684;23.350;2023-04-24T07:04:20;269.70;;;113.27;;
14066;SDS011;7108;42.684;23.350;2023-04-24T07:06:46;241.43;;;99.23;;
14066;SDS011;7108;42.684;23.350;2023-04-24T07:09:12;245.33;;;94.13;;
14066;SDS011;7108;42.684;23.350;2023-04-24T07:11:44;250.10;;;105.07;;
14066;SDS011;7108;42.684;23.350;2023-04-24T07:14:10;248.50;;;99.30;;
14066;SDS011;7108;42.684;23.350;2023-04-24T07:16:36;256.23;;;97.37;;
14066;SDS011;7108;42.684;23.350;2023-04-24T07:19:01;251.73;;;97.43;;
14066;SDS011;7108;42.684;23.350;2023-04-24T07:21:27;272.17;;;101.03;;
14066;SDS011;7108;42.684;23.350;2023-04-24T07:23:52;277.10;;;105.00;;
14066;SDS011;7108;42.684;23.350;2023-04-24T07:26:19;283.43;;;106.30;;
14066;SDS011;7108;42.684;23.350;2023-04-24T07:28:45;258.77;;;102.47;;
14066;SDS011;7108;42.684;23.350;2023-04-24T07:31:11;261.17;;;104.33;;
14066;SDS011;7108;42.684;23.350;2023-04-24T07:33:37;255.70;;;105.30;;
14066;SDS011;7108;42.684;23.350;2023-04-24T07:36:03;261.33;;;102.10;;
14066;SDS011;7108;42.684;23.350;2023-04-24T07:38:31;260.30;;;107.57;;
14066;SDS011;7108;42.684;23.350;2023-04-24T07:40:57;262.37;;;111.67;;
14066;SDS011;7108;42.684;23.350;2023-04-24T07:43:23;264.50;;;106.60;;
14066;SDS011;7108;42.684;23.350;2023-04-24T07:45:49;254.50;;;105.83;;
14066;SDS011;7108;42.684;23.350;2023-04-24T07:48:15;263.43;;;108.60;;
14066;SDS011;7108;42.684;23.350;2023-04-24T07:50:42;239.93;;;104.20;;
14066;SDS011;7108;42.684;23.350;2023-04-24T07:53:08;260.57;;;103.57;;
14066;SDS011;7108;42.684;23.350;2023-04-24T07:55:34;262.90;;;108.87;;
14066;SDS011;7108;42.684;23.350;2023-04-24T07:57:59;274.47;;;108.63;;
14066;SDS011;7108;42.684;23.350;2023-04-24T08:00:25;245.17;;;104.70;;
14066;SDS011;7108;42.684;23.350;2023-04-24T08:02:50;261.10;;;109.40;;
14066;SDS011;7108;42.684;23.350;2023-04-24T08:05:16;267.23;;;115.17;;
14066;SDS011;7108;42.684;23.350;2023-04-24T08:07:41;242.97;;;109.03;;
14066;SDS011;7108;42.684;23.350;2023-04-24T08:10:11;261.83;;;106.17;;
14066;SDS011;7108;42.684;23.350;2023-04-24T08:12:36;248.80;;;106.60;;
14066;SDS011;7108;42.684;23.350;2023-04-24T08:15:02;384.63;;;170.40;;
14066;SDS011;7108;42.684;23.350;2023-04-24T08:17:28;268.43;;;110.60;;
14066;SDS011;7108;42.684;23.350;2023-04-24T08:19:53;274.70;;;110.90;;
14066;SDS011;7108;42.684;23.350;2023-04-24T08:22:26;254.87;;;108.03;;
14066;SDS011;7108;42.684;23.350;2023-04-24T08:24:52;287.00;;;115.17;;
14066;SDS011;7108;42.684;23.350;2023-04-24T08:27:17;273.30;;;114.33;;
14066;SDS011;7108;42.684;23.350;2023-04-24T08:29:43;245.37;;;108.57;;
14066;SDS011;7108;42.684;23.350;2023-04-24T08:32:08;248.90;;;108.93;;
14066;SDS011;7108;42.684;23.350;2023-04-24T08:34:37;253.00;;;114.23;;
14066;SDS011;7108;42.684;23.350;2023-04-24T08:37:02;267.83;;;117.47;;
14066;SDS011;7108;42.684;23.350;2023-04-24T08:39:28;261.00;;;111.13;;
14066;SDS011;7108;42.684;23.350;2023-04-24T08:41:55;277.23;;;116.17;;
14066;SDS011;7108;42.684;23.350;2023-04-24T08:44:21;271.73;;;111.27;;
14066;SDS011;7108;42.684;23.350;2023-04-24T08:46:47;268.03;;;114.30;;
14066;SDS011;7108;42.684;23.350;2023-04-24T08:49:14;254.73;;;122.00;;
14066;SDS011;7108;42.684;23.350;2023-04-24T08:51:43;259.47;;;113.63;;
14066;SDS011;7108;42.684;23.350;2023-04-24T08:54:10;257.43;;;119.60;;
14066;SDS011;7108;42.684;23.350;2023-04-24T08:56:37;249.83;;;108.40;;
14066;SDS011;7108;42.684;23.350;2023-04-24T08:59:05;267.03;;;116.70;;
14066;SDS011;7108;42.684;23.350;2023-04-24T09:01:32;267.63;;;120.30;;
14066;SDS011;7108;42.684;23.350;2023-04-24T09:03:58;279.87;;;110.97;;
14066;SDS011;7108;42.684;23.350;2023-04-24T09:06:28;363.60;;;233.10;;
14066;SDS011;7108;42.684;23.350;2023-04-24T09:08:55;315.00;;;173.87;;
14066;SDS011;7108;42.684;23.350;2023-04-24T09:11:24;267.73;;;110.17;;
14066;SDS011;7108;42.684;23.350;2023-04-24T09:13:50;269.10;;;108.00;;
14066;SDS011;7108;42.684;23.350;2023-04-24T09:16:16;257.53;;;105.27;;
14066;SDS011;7108;42.684;23.350;2023-04-24T09:18:42;250.53;;;109.33;;
14066;SDS011;7108;42.684;23.350;2023-04-24T09:21:08;246.77;;;113.17;;
14066;SDS011;7108;42.684;23.350;2023-04-24T09:23:34;267.30;;;109.47;;
14066;SDS011;7108;42.684;23.350;2023-04-24T09:26:01;271.73;;;108.00;;
14066;SDS011;7108;42.684;23.350;2023-04-24T09:28:30;281.40;;;110.90;;
14066;SDS011;7108;42.684;23.350;2023-04-24T09:31:08;265.90;;;110.47;;
14066;SDS011;7108;42.684;23.350;2023-04-24T09:33:35;256.63;;;107.27;;
14066;SDS011;7108;42.684;23.350;2023-04-24T09:36:01;276.87;;;110.57;;
14066;SDS011;7108;42.684;23.350;2023-04-24T09:38:33;274.80;;;110.73;;
14066;SDS011;7108;42.684;23.350;2023-04-24T09:41:01;276.40;;;102.63;;
14066;SDS011;7108;42.684;23.350;2023-04-24T09:43:28;269.63;;;103.00;;
14066;SDS011;7108;42.684;23.350;2023-04-24T09:45:55;266.73;;;100.30;;
14066;SDS011;7108;42.684;23.350;2023-04-24T09:48:31;283.30;;;100.97;;
14066;SDS011;7108;42.684;23.350;2023-04-24T09:50:57;268.70;;;103.30;;
14066;SDS011;7108;42.684;23.350;2023-04-24T09:53:27;258.13;;;100.77;;
14066;SDS011;7108;42.684;23.350;2023-04-24T09:55:52;273.47;;;100.90;;
14066;SDS011;7108;42.684;23.350;2023-04-24T09:58:18;265.63;;;100.97;;
14066;SDS011;7108;42.684;23.350;2023-04-24T10:00:49;263.10;;;101.33;;
14066;SDS011;7108;42.684;23.350;2023-04-24T10:03:18;255.33;;;97.40;;
14066;SDS011;7108;42.684;23.350;2023-04-24T10:05:44;251.67;;;103.73;;
14066;SDS011;7108;42.684;23.350;2023-04-24T10:08:11;262.93;;;99.23;;
14066;SDS011;7108;42.684;23.350;2023-04-24T10:10:39;245.07;;;102.50;;
14066;SDS011;7108;42.684;23.350;2023-04-24T10:13:06;261.80;;;109.63;;
14066;SDS011;7108;42.684;23.350;2023-04-24T10:15:32;281.60;;;110.57;;
14066;SDS011;7108;42.684;23.350;2023-04-24T10:17:58;289.57;;;115.90;;
14066;SDS011;7108;42.684;23.350;2023-04-24T10:20:25;283.87;;;120.20;;
14066;SDS011;7108;42.684;23.350;2023-04-24T10:22:54;282.23;;;118.30;;
14066;SDS011;7108;42.684;23.350;2023-04-24T10:25:20;278.10;;;112.67;;
14066;SDS011;7108;42.684;23.350;2023-04-24T10:27:47;265.73;;;112.37;;
14066;SDS011;7108;42.684;23.350;2023-04-24T10:30:14;274.43;;;112.80;;
14066;SDS011;7108;42.684;23.350;2023-04-24T10:32:40;260.47;;;112.87;;
14066;SDS011;7108;42.684;23.350;2023-04-24T10:35:06;267.60;;;111.27;;
14066;SDS011;7108;42.684;23.350;2023-04-24T10:37:40;267.60;;;114.77;;
14066;SDS011;7108;42.684;23.350;2023-04-24T10:40:27;273.33;;;118.90;;
14066;SDS011;7108;42.684;23.350;2023-04-24T10:42:56;276.50;;;116.97;;
14066;SDS011;7108;42.684;23.350;2023-04-24T10:45:22;287.03;;;125.87;;
14066;SDS011;7108;42.684;23.350;2023-04-24T10:47:52;281.47;;;119.50;;
14066;SDS011;7108;42.684;23.350;2023-04-24T10:50:18;277.10;;;119.03;;
14066;SDS011;7108;42.684;23.350;2023-04-24T10:52:48;258.97;;;119.80;;
14066;SDS011;7108;42.684;23.350;2023-04-24T10:58:07;263.47;;;119.00;;
14066;SDS011;7108;42.684;23.350;2023-04-24T11:00:33;263.23;;;119.53;;
14066;SDS011;7108;42.684;23.350;2023-04-24T11:03:03;262.07;;;117.90;;
14066;SDS011;7108;42.684;23.350;2023-04-24T11:08:26;284.90;;;122.00;;
14066;SDS011;7108;42.684;23.350;2023-04-24T11:11:00;274.97;;;119.37;;
14066;SDS011;7108;42.684;23.350;2023-04-24T11:18:51;275.97;;;143.53;;
14066;SDS011;7108;42.684;23.350;2023-04-24T11:21:24;300.07;;;139.97;;
14066;SDS011;7108;42.684;23.350;2023-04-24T11:23:51;287.60;;;147.73;;
14066;SDS011;7108;42.684;23.350;2023-04-24T11:26:18;274.57;;;120.37;;
14066;SDS011;7108;42.684;23.350;2023-04-24T11:28:49;267.77;;;110.33;;
14066;SDS011;7108;42.684;23.350;2023-04-24T11:31:37;287.00;;;124.60;;
14066;SDS011;7108;42.684;23.350;2023-04-24T11:34:11;347.30;;;153.63;;
14066;SDS011;7108;42.684;23.350;2023-04-24T11:36:39;245.23;;;105.17;;
14066;SDS011;7108;42.684;23.350;2023-04-24T11:39:05;261.23;;;108.97;;
14066;SDS011;7108;42.684;23.350;2023-04-24T11:41:31;266.87;;;106.40;;
14066;SDS011;7108;42.684;23.350;2023-04-24T11:43:58;267.57;;;105.77;;
14066;SDS011;7108;42.684;23.350;2023-04-24T11:46:26;270.80;;;105.57;;
14066;SDS011;7108;42.684;23.350;2023-04-24T11:48:53;247.17;;;101.40;;
14066;SDS011;7108;42.684;23.350;2023-04-24T11:51:18;255.97;;;106.50;;
14066;SDS011;7108;42.684;23.350;2023-04-24T11:53:44;278.33;;;150.17;;
14066;SDS011;7108;42.684;23.350;2023-04-24T11:56:09;254.67;;;109.53;;
14066;SDS011;7108;42.684;23.350;2023-04-24T11:58:38;254.00;;;108.83;;
14066;SDS011;7108;42.684;23.350;2023-04-24T12:01:04;262.10;;;111.20;;
14066;SDS011;7108;42.684;23.350;2023-04-24T12:03:30;282.90;;;133.70;;
14066;SDS011;7108;42.684;23.350;2023-04-24T12:06:08;301.47;;;116.67;;
14066;SDS011;7108;42.684;23.350;2023-04-24T12:08:35;255.67;;;111.30;;
14066;SDS011;7108;42.684;23.350;2023-04-24T12:11:01;258.73;;;110.70;;
14066;SDS011;7108;42.684;23.350;2023-04-24T12:13:28;263.63;;;110.37;;
14066;SDS011;7108;42.684;23.350;2023-04-24T12:15:54;277.43;;;119.93;;
14066;SDS011;7108;42.684;23.350;2023-04-24T12:18:22;273.60;;;119.57;;
14066;SDS011;7108;42.684;23.350;2023-04-24T12:20:48;282.00;;;125.93;;
14066;SDS011;7108;42.684;23.350;2023-04-24T12:23:13;269.23;;;115.17;;
14066;SDS011;7108;42.684;23.350;2023-04-24T12:25:39;278.83;;;124.83;;
14066;SDS011;7108;42.684;23.350;2023-04-24T12:30:35;286.17;;;118.20;;
14066;SDS011;7108;42.684;23.350;2023-04-24T12:33:04;286.80;;;121.87;;
14066;SDS011;7108;42.684;23.350;2023-04-24T12:35:30;281.37;;;119.40;;
14066;SDS011;7108;42.684;23.350;2023-04-24T12:38:15;306.43;;;123.90;;
14066;SDS011;7108;42.684;23.350;2023-04-24T12:40:41;262.63;;;116.80;;
14066;SDS011;7108;42.684;23.350;2023-04-24T12:43:14;283.63;;;123.03;;
14066;SDS011;7108;42.684;23.350;2023-04-24T12:45:40;263.80;;;114.17;;
14066;SDS011;7108;42.684;23.350;2023-04-24T12:48:06;289.33;;;122.57;;
14066;SDS011;7108;42.684;23.350;2023-04-24T12:50:31;284.07;;;119.53;;
14066;SDS011;7108;42.684;23.350;2023-04-24T12:52:56;293.43;;;119.67;;
14066;SDS011;7108;42.684;23.350;2023-04-24T12:55:22;297.13;;;119.13;;
14066;SDS011;7108;42.684;23.350;2023-04-24T12:57:47;280.40;;;118.93;;
14066;SDS011;7108;42.684;23.350;2023-04-24T13:00:13;276.60;;;116.70;;
14066;SDS011;7108;42.684;23.350;2023-04-24T13:02:39;270.70;;;118.20;;
14066;SDS011;7108;42.684;23.350;2023-04-24T13:05:05;300.30;;;119.37;;
14066;SDS011;7108;42.684;23.350;2023-04-24T13:07:30;293.17;;;116.90;;
14066;SDS011;7108;42.684;23.350;2023-04-24T13:09:56;303.63;;;123.13;;
14066;SDS011;7108;42.684;23.350;2023-04-24T13:12:25;304.20;;;122.53;;
14066;SDS011;7108;42.684;23.350;2023-04-24T13:14:51;301.63;;;119.87;;
14066;SDS011;7108;42.684;23.350;2023-04-24T13:17:17;283.77;;;116.53;;
14066;SDS011;7108;42.684;23.350;2023-04-24T13:19:43;279.67;;;118.37;;
14066;SDS011;7108;42.684;23.350;2023-04-24T13:22:09;284.50;;;119.83;;
14066;SDS011;7108;42.684;23.350;2023-04-24T13:24:36;291.00;;;122.03;;
14066;SDS011;7108;42.684;23.350;2023-04-24T13:27:02;293.73;;;117.07;;
14066;SDS011;7108;42.684;23.350;2023-04-24T13:29:28;292.30;;;121.03;;
14066;SDS011;7108;42.684;23.350;2023-04-24T13:31:54;298.17;;;125.47;;
14066;SDS011;7108;42.684;23.350;2023-04-24T13:34:20;292.53;;;120.20;;
14066;SDS011;7108;42.684;23.350;2023-04-24T13:36:46;278.07;;;121.00;;
14066;SDS011;7108;42.684;23.350;2023-04-24T13:39:12;262.37;;;117.97;;
14066;SDS011;7108;42.684;23.350;2023-04-24T13:41:38;273.50;;;118.87;;
14066;SDS011;7108;42.684;23.350;2023-04-24T13:44:06;292.73;;;133.80;;
14066;SDS011;7108;42.684;23.350;2023-04-24T13:46:32;289.87;;;117.83;;
14066;SDS011;7108;42.684;23.350;2023-04-24T13:48:57;289.97;;;122.73;;
14066;SDS011;7108;42.684;23.350;2023-04-24T13:51:23;292.70;;;118.33;;
14066;SDS011;7108;42.684;23.350;2023-04-24T13:53:52;313.57;;;124.33;;
14066;SDS011;7108;42.684;23.350;2023-04-24T13:56:18;293.23;;;120.07;;
14066;SDS011;7108;42.684;23.350;2023-04-24T13:58:43;255.43;;;113.67;;
14066;SDS011;7108;42.684;23.350;2023-04-24T14:01:08;284.77;;;121.10;;
14066;SDS011;7108;42.684;23.350;2023-04-24T14:03:34;286.27;;;114.23;;
14066;SDS011;7108;42.684;23.350;2023-04-24T14:05:59;296.53;;;117.77;;
14066;SDS011;7108;42.684;23.350;2023-04-24T14:08:25;313.77;;;124.23;;
14066;SDS011;7108;42.684;23.350;2023-04-24T14:10:50;291.33;;;121.43;;